Time;durP1;ratioP1;P1;durP2;ratioP2;P2;SDS_P1;SDS_P2;PMS_P1;PMS_P2;Temp;Humidity;BMP_temperature;BMP_pressure;BME280_temperature;BME280_humidity;BME280_pressure;Samples;Min_cycle;Max_cycle;Signal;HPM_P1;HPM_P2
2022/05/03 00:00:09;;;;;;;25.98;12.30;;;;;;;6.63;77.98;93685.75;4952288;28;20049;-51
2022/05/03 00:03:27;;;;;;;25.35;13.55;;;;;;;6.58;77.75;93682.25;4952881;28;20035;-45
2022/05/03 00:06:18;;;;;;;24.43;12.53;;;;;;;6.63;77.60;93683.78;4929709;29;20408;-45
2022/05/03 00:09:07;;;;;;;23.80;12.13;;;;;;;6.57;78.11;93682.66;4930730;29;20055;-49
2022/05/03 00:11:50;;;;;;;23.67;12.65;;;;;;;6.53;78.17;93681.88;4962687;28;20354;-45
2022/05/03 00:14:43;;;;;;;25.27;12.65;;;;;;;6.57;78.04;93683.41;4969878;28;20047;-46
2022/05/03 00:17:13;;;;;;;20.20;11.63;;;;;;;6.58;78.04;93676.03;4971433;28;20047;-45
2022/05/03 00:19:39;;;;;;;23.13;12.60;;;;;;;6.53;78.39;93682.66;4971630;28;20051;-51
2022/05/03 00:22:06;;;;;;;22.60;12.07;;;;;;;6.26;78.48;93682.38;4954171;28;20046;-45
2022/05/03 00:24:33;;;;;;;21.83;12.85;;;;;;;6.37;79.31;93677.66;4971692;28;20057;-45
2022/05/03 00:27:00;;;;;;;20.60;12.88;;;;;;;6.38;79.66;93671.03;4971245;28;20046;-48
2022/05/03 00:29:29;;;;;;;22.55;14.02;;;;;;;6.17;80.31;93673.81;4988430;28;20042;-45
2022/05/03 00:31:57;;;;;;;19.70;12.27;;;;;;;6.18;80.07;93662.53;4993086;28;20053;-49
2022/05/03 00:34:24;;;;;;;21.40;12.90;;;;;;;6.24;79.92;93665.63;5010361;28;20044;-51
2022/05/03 00:36:50;;;;;;;22.80;13.02;;;;;;;6.26;79.93;93666.00;5008308;28;20038;-46
2022/05/03 00:39:17;;;;;;;22.33;12.38;;;;;;;6.19;79.57;93663.31;4973327;28;20042;-51
2022/05/03 00:41:44;;;;;;;21.58;12.35;;;;;;;6.21;79.28;93666.41;4973134;28;20058;-46
2022/05/03 00:44:58;;;;;;;19.90;10.87;;;;;;;6.10;79.32;93661.00;4982896;28;20073;-47
2022/05/03 00:47:53;;;;;;;19.67;10.85;;;;;;;5.94;79.22;93658.66;4972346;28;20077;-49
2022/05/03 00:50:34;;;;;;;19.20;11.57;;;;;;;6.00;78.78;93664.53;4946552;28;20069;-45
2022/05/03 00:53:08;;;;;;;17.80;10.77;;;;;;;5.86;78.38;93661.81;4990568;28;20050;-44
2022/05/03 00:55:59;;;;;;;44.60;26.15;;;;;;;5.79;79.17;93663.38;4991027;28;20046;-51
2022/05/03 00:58:55;;;;;;;21.57;12.47;;;;;;;5.87;78.89;93660.63;4990206;28;20049;-49
2022/05/03 01:01:54;;;;;;;20.75;12.00;;;;;;;5.88;78.72;93664.91;4977773;28;20760;-45
2022/05/03 01:04:31;;;;;;;17.80;10.57;;;;;;;5.85;79.34;93650.09;4990133;28;20046;-45
2022/05/03 01:07:07;;;;;;;24.55;13.80;;;;;;;5.83;79.02;93657.91;4990441;28;20060;-50
2022/05/03 01:09:40;;;;;;;23.42;14.60;;;;;;;5.73;80.08;93667.63;4990800;28;20046;-45
2022/05/03 01:12:25;;;;;;;27.73;14.80;;;;;;;5.79;79.89;93654.41;4990427;28;20057;-51
2022/05/03 01:14:52;;;;;;;23.45;13.32;;;;;;;5.84;79.66;93659.47;4990463;28;20050;-49
2022/05/03 01:17:34;;;;;;;23.00;13.65;;;;;;;5.83;79.70;93648.94;4990662;28;20038;-45
2022/05/03 01:20:06;;;;;;;21.63;12.57;;;;;;;5.82;79.79;93648.19;4990249;28;20054;-46
2022/05/03 01:23:01;;;;;;;18.67;12.05;;;;;;;5.83;80.08;93652.44;4990576;28;20042;-48
2022/05/03 01:26:00;;;;;;;18.37;12.13;;;;;;;5.80;79.89;93645.06;4989838;28;20571;-50
2022/05/03 01:29:01;;;;;;;25.30;13.85;;;;;;;5.80;78.99;93643.13;4989484;28;20662;-45
2022/05/03 01:31:28;;;;;;;20.75;12.35;;;;;;;5.69;79.51;93644.31;4989351;28;20068;-48
2022/05/03 01:34:01;;;;;;;21.63;12.55;;;;;;;5.66;79.35;93645.09;4990075;28;20632;-55
2022/05/03 01:36:53;;;;;;;45.03;23.90;;;;;;;5.50;80.41;93640.06;4990468;28;20058;-49
2022/05/03 01:39:25;;;;;;;20.87;12.77;;;;;;;5.49;80.48;93641.97;4970230;28;20049;-49
2022/05/03 01:42:00;;;;;;;15.77;10.48;;;;;;;5.43;80.34;93646.25;4970251;28;20080;-52
2022/05/03 01:44:26;;;;;;;15.93;10.45;;;;;;;5.39;80.64;93646.28;4971161;28;20491;-50
2022/05/03 01:46:58;;;;;;;16.75;10.57;;;;;;;5.37;80.83;93645.88;4970396;28;20066;-46
2022/05/03 01:52:47;;;;;;;17.37;11.20;;;;;;;5.32;80.67;93653.66;4970100;28;22217;-47
2022/05/03 01:55:45;;;;;;;17.23;10.57;;;;;;;5.29;80.61;93659.84;4953183;28;21843;-50
2022/05/03 01:58:22;;;;;;;16.33;10.25;;;;;;;5.22;79.64;93652.47;4970656;28;20050;-48
2022/05/03 02:01:01;;;;;;;15.40;10.00;;;;;;;5.24;79.31;93652.09;4973083;28;20053;-51
2022/05/03 02:03:50;;;;;;;15.90;9.77;;;;;;;5.25;79.16;93650.91;4974869;28;20038;-53
2022/05/03 02:06:50;;;;;;;16.57;10.50;;;;;;;5.22;79.25;93638.09;4973719;28;21179;-47
2022/05/03 02:09:25;;;;;;;15.52;9.63;;;;;;;5.17;78.91;93648.22;4973804;28;20580;-47
2022/05/03 02:11:58;;;;;;;16.33;10.30;;;;;;;5.13;79.72;93655.59;4974472;28;20059;-52
2022/05/03 02:14:44;;;;;;;17.33;10.20;;;;;;;5.09;80.23;93654.00;4974592;28;20054;-52
2022/05/03 02:17:19;;;;;;;16.63;10.02;;;;;;;5.08;80.94;93647.81;4973933;28;20043;-47
2022/05/03 02:20:05;;;;;;;17.07;10.70;;;;;;;5.06;80.67;93644.69;4974422;28;20491;-48
2022/05/03 02:23:05;;;;;;;16.80;9.90;;;;;;;5.06;80.90;93652.84;4973324;28;20054;-50
2022/05/03 02:25:35;;;;;;;15.48;9.73;;;;;;;5.07;81.61;93648.97;4973342;28;20601;-47
2022/05/03 02:28:14;;;;;;;18.92;10.50;;;;;;;5.04;80.86;93651.69;4973885;28;20046;-52
2022/05/03 02:30:49;;;;;;;17.65;10.80;;;;;;;5.02;81.46;93652.06;4974126;28;20047;-53
2022/05/03 02:33:42;;;;;;;16.77;10.27;;;;;;;5.03;81.52;93652.84;4973450;28;20920;-50
2022/05/03 02:36:14;;;;;;;17.05;10.23;;;;;;;5.03;81.21;93647.41;4973774;28;20051;-47
2022/05/03 02:39:02;;;;;;;16.98;10.55;;;;;;;5.05;81.57;93648.59;5006439;28;20054;-45
2022/05/03 02:41:38;;;;;;;17.13;10.25;;;;;;;5.02;81.33;93643.13;5012206;28;20193;-49
2022/05/03 02:44:05;;;;;;;17.42;9.98;;;;;;;5.01;81.70;93647.81;4989174;28;20055;-52
2022/05/03 02:46:56;;;;;;;19.23;11.93;;;;;;;4.96;81.18;93643.50;4986307;28;20045;-49
2022/05/03 02:49:38;;;;;;;18.17;11.02;;;;;;;4.88;81.79;93644.66;4992291;28;21805;-46
2022/05/03 02:52:15;;;;;;;16.58;10.10;;;;;;;4.90;81.05;93645.06;4975615;28;20054;-51
2022/05/03 02:54:50;;;;;;;16.27;9.63;;;;;;;4.88;81.21;93643.88;4993203;28;20058;-50
2022/05/03 02:57:26;;;;;;;14.88;9.80;;;;;;;4.85;80.91;93645.44;4975032;28;20948;-47
2022/05/03 03:03:16;;;;;;;15.15;9.43;;;;;;;4.81;81.34;93636.50;4992422;28;20428;-52
2022/05/03 03:05:44;;;;;;;15.43;9.90;;;;;;;4.78;80.78;93648.13;4992733;28;20058;-47
2022/05/03 03:08:12;;;;;;;17.23;9.75;;;;;;;4.69;80.96;93643.06;4975289;28;20038;-44
2022/05/03 03:10:52;;;;;;;16.00;10.13;;;;;;;4.70;81.60;93641.91;4992713;28;20050;-45
2022/05/03 03:13:26;;;;;;;15.87;9.53;;;;;;;4.68;81.53;93640.75;4991549;28;20387;-45
2022/05/03 03:15:54;;;;;;;15.38;9.35;;;;;;;4.63;81.02;93641.09;4992622;28;20055;-46
2022/05/03 03:18:24;;;;;;;17.48;10.43;;;;;;;4.62;81.56;93642.28;4992835;28;20065;-51
2022/05/03 03:20:56;;;;;;;19.13;11.27;;;;;;;4.65;81.95;93644.22;4992174;28;20043;-52
2022/05/03 03:23:29;;;;;;;22.27;13.85;;;;;;;4.62;81.59;93639.56;4992654;28;20065;-47
2022/05/03 03:25:58;;;;;;;24.67;14.53;;;;;;;4.62;81.83;93637.59;4992151;28;20064;-51
2022/05/03 03:28:28;;;;;;;17.95;11.57;;;;;;;4.63;81.58;93644.63;4992403;28;20072;-48
2022/05/03 03:30:58;;;;;;;16.23;10.50;;;;;;;4.60;82.18;93639.94;4974911;28;20046;-49
2022/05/03 03:33:25;;;;;;;16.35;10.60;;;;;;;4.58;82.26;93642.25;4992471;28;20406;-51
2022/05/03 03:35:54;;;;;;;17.90;11.18;;;;;;;4.56;81.76;93641.88;4992006;28;20053;-50
2022/05/03 03:38:30;;;;;;;20.47;11.33;;;;;;;4.52;82.86;93638.34;4988506;28;20084;-49
2022/05/03 03:40:57;;;;;;;19.20;11.80;;;;;;;4.52;82.73;93641.06;5011391;28;20068;-49
2022/05/03 03:43:24;;;;;;;26.88;15.73;;;;;;;4.52;83.22;93647.28;4994601;28;20043;-53
2022/05/03 03:45:50;;;;;;;21.70;13.40;;;;;;;4.53;82.71;93642.66;4983717;28;20047;-49
2022/05/03 03:48:17;;;;;;;17.90;10.98;;;;;;;4.29;82.74;93644.13;4955809;28;20422;-52
2022/05/03 03:50:44;;;;;;;20.37;12.00;;;;;;;4.24;82.39;93647.19;4972846;28;20053;-49
2022/05/03 03:53:14;;;;;;;19.58;11.95;;;;;;;4.28;81.61;93651.47;4972101;28;20049;-49
2022/05/03 03:55:44;;;;;;;32.55;14.02;;;;;;;4.36;82.37;93642.19;4971541;28;20399;-47
2022/05/03 03:58:10;;;;;;;24.60;12.20;;;;;;;4.37;82.67;93641.03;4972023;28;20513;-48
2022/05/03 04:00:37;;;;;;;22.55;12.05;;;;;;;4.38;81.86;93653.44;4972582;28;20045;-52
2022/05/03 04:03:06;;;;;;;23.57;12.17;;;;;;;4.41;81.87;93646.47;4972024;28;20082;-51
2022/05/03 04:05:35;;;;;;;25.50;13.10;;;;;;;4.44;82.38;93653.84;4955323;28;20047;-49
2022/05/03 04:08:02;;;;;;;22.77;12.63;;;;;;;4.44;82.53;93647.66;4971898;28;20046;-45
2022/05/03 04:10:29;;;;;;;20.13;12.02;;;;;;;4.44;82.45;93644.94;4972200;28;20105;-47
2022/05/03 04:12:57;;;;;;;23.00;12.30;;;;;;;4.45;81.41;93649.19;4970770;28;20055;-47
2022/05/03 04:15:25;;;;;;;21.13;12.13;;;;;;;4.46;81.78;93645.31;4972262;28;20077;-50
2022/05/03 04:17:53;;;;;;;24.35;13.02;;;;;;;4.50;81.69;93646.13;4970393;28;20078;-47
2022/05/03 04:20:19;;;;;;;23.25;12.93;;;;;;;4.52;81.96;93644.56;4972120;28;20052;-48
2022/05/03 04:22:46;;;;;;;22.08;12.40;;;;;;;4.57;81.75;93654.31;4971933;28;20047;-51
2022/05/03 04:25:14;;;;;;;22.00;12.52;;;;;;;4.58;81.51;93664.00;4970644;28;20734;-47
2022/05/03 04:27:41;;;;;;;26.97;12.27;;;;;;;4.54;80.65;93649.63;4972035;28;20057;-48
2022/05/03 04:30:08;;;;;;;31.83;13.70;;;;;;;4.58;80.48;93653.91;4971313;28;20062;-48
2022/05/03 04:32:35;;;;;;;29.58;13.45;;;;;;;4.69;80.62;93662.09;4970756;28;20047;-47
2022/05/03 04:35:02;;;;;;;41.03;15.35;;;;;;;4.70;80.45;93655.50;4971374;28;20407;-49
2022/05/03 04:37:29;;;;;;;29.45;14.50;;;;;;;4.77;79.97;93663.69;4984167;28;20053;-50
2022/05/03 04:39:56;;;;;;;28.37;13.47;;;;;;;4.86;80.34;93665.25;5010129;28;20057;-46
2022/05/03 04:42:23;;;;;;;27.98;12.82;;;;;;;4.92;80.06;93666.44;4990558;28;20687;-47
2022/05/03 04:44:49;;;;;;;26.77;13.93;;;;;;;4.99;79.31;93674.63;4965223;28;20050;-46
2022/05/03 04:47:16;;;;;;;27.38;13.75;;;;;;;4.92;79.92;93667.19;4955753;28;20065;-50
2022/05/03 04:49:43;;;;;;;26.33;14.98;;;;;;;5.02;79.81;93676.53;4954632;28;20389;-47
2022/05/03 04:52:10;;;;;;;27.57;15.70;;;;;;;5.19;79.00;93677.72;4971096;28;20046;-53
2022/05/03 04:54:37;;;;;;;23.52;14.00;;;;;;;5.36;79.42;93685.13;4971566;28;20045;-50
2022/05/03 04:57:06;;;;;;;27.88;14.45;;;;;;;5.48;78.97;93673.09;4953976;28;20050;-47
2022/05/03 04:59:34;;;;;;;26.58;13.65;;;;;;;5.56;78.90;93668.44;4971409;28;20043;-48
2022/05/03 05:02:00;;;;;;;37.65;16.65;;;;;;;5.55;78.07;93664.94;4970740;28;20043;-51
2022/05/03 05:04:27;;;;;;;37.07;16.37;;;;;;;5.65;77.94;93665.31;4971344;28;20050;-50
2022/05/03 05:06:54;;;;;;;44.40;16.73;;;;;;;5.68;78.00;93664.53;4970687;28;20077;-53
2022/05/03 05:09:21;;;;;;;34.63;14.88;;;;;;;5.72;77.67;93668.81;4971171;28;20043;-48
2022/05/03 05:11:49;;;;;;;45.58;16.75;;;;;;;5.82;77.08;93664.53;4971378;28;20051;-48
2022/05/03 05:14:19;;;;;;;46.40;17.33;;;;;;;5.89;76.93;93667.22;4970472;28;20812;-50
2022/05/03 05:16:48;;;;;;;32.97;13.20;;;;;;;5.77;76.80;93673.06;4971360;28;20051;-51
2022/05/03 05:19:15;;;;;;;22.55;12.35;;;;;;;5.87;76.41;93675.00;4970223;28;20860;-52
2022/05/03 05:21:42;;;;;;;22.55;11.85;;;;;;;5.91;76.61;93672.28;4971462;28;20065;-46
2022/05/03 05:24:11;;;;;;;22.38;12.18;;;;;;;6.11;76.02;93680.84;4970850;28;20057;-51
2022/05/03 05:26:39;;;;;;;24.63;13.00;;;;;;;6.20;76.27;93683.94;4971171;28;20042;-49
2022/05/03 05:29:06;;;;;;;26.23;13.77;;;;;;;6.40;75.69;93681.56;4969153;28;20061;-45
2022/05/03 05:31:33;;;;;;;27.85;13.90;;;;;;;6.52;75.65;93681.13;4971206;28;20066;-48
2022/05/03 05:34:00;;;;;;;26.00;13.45;;;;;;;6.54;76.32;93683.44;4970439;28;20042;-49
2022/05/03 05:36:27;;;;;;;29.83;14.90;;;;;;;6.58;76.77;93689.66;4977117;28;20047;-45
2022/05/03 05:38:53;;;;;;;22.65;13.43;;;;;;;6.71;76.45;93688.03;5012419;28;20407;-53
2022/05/03 05:41:20;;;;;;;19.37;12.10;;;;;;;6.82;75.27;93693.44;5016550;28;20371;-49
2022/05/03 05:43:47;;;;;;;17.48;11.75;;;;;;;6.60;75.85;93690.06;5016291;28;20072;-45
2022/05/03 05:46:15;;;;;;;21.20;12.82;;;;;;;6.97;74.61;93694.94;5014186;28;20056;-49
2022/05/03 05:48:41;;;;;;;20.15;12.88;;;;;;;7.18;74.44;93691.31;5016432;28;20050;-49
2022/05/03 05:51:08;;;;;;;18.95;12.00;;;;;;;7.50;73.39;93695.00;4998628;28;20053;-51
2022/05/03 05:53:35;;;;;;;20.30;12.37;;;;;;;7.80;72.80;93694.38;5016514;28;20045;-49
2022/05/03 05:56:04;;;;;;;19.83;13.48;;;;;;;8.07;72.52;93686.34;5015996;28;20056;-46
2022/05/03 05:58:31;;;;;;;20.77;12.43;;;;;;;8.87;71.04;93687.03;5016528;28;20042;-46
2022/05/03 06:00:58;;;;;;;16.85;12.07;;;;;;;10.98;64.60;93687.56;5015899;28;20050;-46
2022/05/03 06:03:27;;;;;;;17.30;12.05;;;;;;;12.57;58.30;93677.19;5010369;28;20104;-46
2022/05/03 06:05:55;;;;;;;16.13;11.20;;;;;;;13.57;54.56;93688.13;4988816;28;20054;-46
2022/05/03 06:08:21;;;;;;;16.92;11.25;;;;;;;14.46;52.47;93683.72;4977261;28;20055;-50
2022/05/03 06:10:49;;;;;;;14.15;10.75;;;;;;;15.22;50.22;93686.63;4976689;28;20047;-50
2022/05/03 06:13:17;;;;;;;13.43;10.90;;;;;;;15.35;49.45;93681.78;4976188;28;20042;-51
2022/05/03 06:15:44;;;;;;;14.10;11.27;;;;;;;15.63;49.14;93693.00;4976437;28;20051;-53
2022/05/03 06:18:12;;;;;;;15.03;10.77;;;;;;;16.11;48.19;93691.53;4975947;28;20038;-51
2022/05/03 06:20:39;;;;;;;12.23;10.52;;;;;;;17.17;46.38;93678.41;4976631;28;20466;-49
2022/05/03 06:23:11;;;;;;;12.63;10.60;;;;;;;19.03;42.03;93682.66;4975790;28;20066;-51
2022/05/03 06:25:38;;;;;;;16.98;10.98;;;;;;;19.46;41.38;93688.00;4976238;28;20046;-53
2022/05/03 06:28:05;;;;;;;11.70;10.02;;;;;;;19.79;39.71;93681.50;4981063;28;20057;-50
2022/05/03 06:30:32;;;;;;;12.13;10.23;;;;;;;20.49;39.42;93678.75;4976953;28;20051;-52
2022/05/03 06:32:59;;;;;;;14.02;10.50;;;;;;;21.26;37.77;93687.06;4976416;28;20415;-48
2022/05/03 06:35:27;;;;;;;10.98;9.57;;;;;;;21.66;37.10;93693.84;4977123;28;20528;-52
2022/05/03 06:37:54;;;;;;;11.43;9.52;;;;;;;21.30;37.29;93693.94;4984419;28;20043;-51
2022/05/03 06:40:21;;;;;;;11.25;10.00;;;;;;;21.81;36.89;93693.72;4976456;28;20056;-53
2022/05/03 06:42:48;;;;;;;12.37;10.00;;;;;;;22.12;36.30;93690.16;4978186;28;20046;-48
2022/05/03 06:45:14;;;;;;;10.45;9.35;;;;;;;24.02;33.42;93685.13;4991797;28;20049;-50
2022/05/03 06:47:44;;;;;;;11.77;8.90;;;;;;;24.89;31.60;93686.03;4973340;28;20043;-54
2022/05/03 06:50:12;;;;;;;10.30;8.90;;;;;;;23.92;32.70;93688.19;4972101;28;20054;-52
2022/05/03 06:52:39;;;;;;;10.85;8.40;;;;;;;24.78;31.66;93681.22;4973780;28;20055;-50
2022/05/03 06:55:06;;;;;;;11.90;9.70;;;;;;;21.85;35.69;93699.84;4973241;28;20049;-52
2022/05/03 06:57:33;;;;;;;12.68;10.20;;;;;;;22.05;36.70;93693.41;4972368;28;20047;-52
2022/05/03 07:00:02;;;;;;;10.48;9.38;;;;;;;22.46;35.89;93690.44;4973086;28;20046;-51
2022/05/03 07:02:31;;;;;;;10.85;9.75;;;;;;;23.49;33.77;93682.75;4973531;28;20042;-49
2022/05/03 07:04:59;;;;;;;10.40;9.30;;;;;;;25.15;30.67;93687.72;4973161;28;20469;-51
2022/05/03 07:07:27;;;;;;;11.33;9.23;;;;;;;24.23;32.21;93689.19;4973793;28;20074;-48
2022/05/03 07:09:55;;;;;;;10.30;9.23;;;;;;;23.96;32.60;93687.16;4971954;28;20040;-48
2022/05/03 07:12:22;;;;;;;11.13;9.23;;;;;;;24.61;31.39;93686.09;4973572;28;20409;-51
2022/05/03 07:14:49;;;;;;;10.88;9.77;;;;;;;22.97;33.42;93694.25;4973112;28;20046;-52
2022/05/03 07:22:50;;;;;;;12.15;10.38;;;;;;;26.06;29.70;93688.78;4987641;28;20514;-51
2022/05/03 07:25:17;;;;;;;13.32;11.15;;;;;;;24.63;31.09;93687.13;4972251;28;20391;-53
2022/05/03 07:27:48;;;;;;;10.55;9.45;;;;;;;27.03;28.26;93689.44;4973273;28;20049;-49
2022/05/03 07:30:16;;;;;;;10.48;9.38;;;;;;;27.21;27.98;93688.69;4972273;28;20777;-50
2022/05/03 07:32:44;;;;;;;9.97;8.77;;;;;;;28.48;26.82;93693.56;4973225;28;20077;-49
2022/05/03 07:35:11;;;;;;;13.68;10.27;;;;;;;26.78;28.56;93699.94;4971218;28;20089;-46
2022/05/03 07:37:40;;;;;;;10.25;9.15;;;;;;;27.83;27.65;93687.13;4988330;28;20044;-49
2022/05/03 07:40:09;;;;;;;9.70;8.70;;;;;;;27.50;27.60;93691.94;5010872;28;20135;-48
2022/05/03 07:42:36;;;;;;;9.70;8.70;;;;;;;26.74;29.04;93697.41;5001935;28;20038;-50
2022/05/03 07:45:03;;;;;;;9.60;8.60;;;;;;;28.32;27.54;93692.56;4982383;28;20054;-51
2022/05/03 07:47:30;;;;;;;9.40;7.85;;;;;;;29.98;25.30;93701.75;4972747;28;20043;-51
2022/05/03 07:49:56;;;;;;;9.20;8.30;;;;;;;27.77;27.53;93692.06;4972322;28;20050;-52
2022/05/03 07:52:23;;;;;;;9.63;8.57;;;;;;;23.42;34.25;93702.06;4972797;28;20058;-50
2022/05/03 07:54:50;;;;;;;12.40;9.98;;;;;;;23.21;34.36;93695.91;4971199;28;20049;-46
2022/05/03 07:57:17;;;;;;;12.13;9.53;;;;;;;24.16;33.43;93702.97;4972805;28;20411;-51
2022/05/03 07:59:43;;;;;;;10.80;8.95;;;;;;;27.49;28.10;93693.25;4972534;28;20344;-50
2022/05/03 08:02:11;;;;;;;9.40;8.40;;;;;;;27.65;27.23;93700.72;4971981;28;20072;-49
2022/05/03 08:04:39;;;;;;;9.38;8.38;;;;;;;27.81;26.70;93698.97;4972586;28;20047;-48
2022/05/03 08:07:06;;;;;;;10.27;9.13;;;;;;;28.23;26.51;93707.06;4971874;28;20070;-52
2022/05/03 08:09:35;;;;;;;9.60;8.70;;;;;;;27.99;26.94;93699.47;4972705;28;20046;-52
2022/05/03 08:12:03;;;;;;;9.55;8.07;;;;;;;25.62;29.19;93713.84;4971887;28;20415;-48
2022/05/03 08:14:30;;;;;;;12.23;9.70;;;;;;;25.21;31.25;93706.13;4972540;28;20053;-54
2022/05/03 08:17:00;;;;;;;11.23;9.90;;;;;;;24.72;32.06;93711.34;4970827;28;20510;-55
2022/05/03 08:19:27;;;;;;;12.80;11.50;;;;;;;19.34;42.02;93715.63;4972356;28;20038;-51
2022/05/03 08:21:56;;;;;;;12.97;11.60;;;;;;;18.13;45.10;93714.88;4972039;28;20047;-52
2022/05/03 08:24:24;;;;;;;11.88;10.10;;;;;;;20.24;40.97;93705.25;4972272;28;20046;-48
2022/05/03 08:26:52;;;;;;;11.73;9.43;;;;;;;21.93;37.38;93709.31;4970342;28;20045;-53
2022/05/03 08:29:19;;;;;;;13.45;10.95;;;;;;;20.78;39.13;93707.78;4971769;28;20047;-50
2022/05/03 08:31:46;;;;;;;12.40;10.10;;;;;;;23.63;35.26;93709.00;4972210;28;20503;-48
2022/05/03 08:34:14;;;;;;;12.47;10.50;;;;;;;24.79;31.69;93710.03;4971071;28;20385;-51
2022/05/03 08:36:40;;;;;;;13.10;10.45;;;;;;;25.04;32.73;93711.00;4971917;28;20058;-53
2022/05/03 08:42:02;;;;;;;12.05;10.27;;;;;;;23.82;33.69;93714.91;4971735;28;20051;-51
2022/05/03 08:44:29;;;;;;;9.52;8.52;;;;;;;25.95;29.45;93720.56;4986552;28;20400;-51
2022/05/03 08:46:58;;;;;;;16.20;10.30;;;;;;;22.11;37.22;93727.75;4990731;28;20084;-47
2022/05/03 08:49:36;;;;;;;12.93;11.52;;;;;;;18.46;45.43;93721.66;4991286;28;20433;-52
2022/05/03 08:52:08;;;;;;;17.40;12.35;;;;;;;19.08;46.59;93728.53;4990781;28;20054;-52
2022/05/03 08:54:39;;;;;;;17.75;11.57;;;;;;;19.34;47.05;93726.00;4991202;28;20058;-52
2022/05/03 08:57:07;;;;;;;15.50;10.88;;;;;;;18.60;46.25;93720.94;4990533;28;20059;-50
2022/05/03 08:59:35;;;;;;;14.27;10.37;;;;;;;18.63;46.65;93719.97;4990925;28;20050;-54
2022/05/03 09:02:04;;;;;;;13.65;10.40;;;;;;;16.90;49.70;93726.31;4989241;28;20057;-52
2022/05/03 09:04:31;;;;;;;15.30;9.07;;;;;;;16.89;49.21;93730.31;4990815;28;20122;-54
2022/05/03 09:07:24;;;;;;;11.68;8.75;;;;;;;15.87;49.53;93732.03;4990333;28;20128;-52
2022/05/03 09:09:54;;;;;;;11.65;7.50;;;;;;;15.89;48.91;93727.56;4989575;28;20058;-51
2022/05/03 09:12:24;;;;;;;7.50;5.87;;;;;;;16.37;47.33;93724.50;4990982;28;20088;-48
2022/05/03 09:14:51;;;;;;;7.32;5.10;;;;;;;16.52;45.97;93717.16;4989048;28;20072;-51
2022/05/03 09:17:35;;;;;;;7.78;5.30;;;;;;;16.70;46.15;93719.19;4990975;28;20043;-53
2022/05/03 09:25:50;;;;;;;10.67;5.80;;;;;;;14.27;55.51;93732.47;4990105;28;20072;-53
2022/05/03 09:28:22;;;;;;;10.85;7.55;;;;;;;14.03;60.22;93723.78;4990514;28;20534;-50
2022/05/03 09:30:52;;;;;;;12.48;8.05;;;;;;;13.50;64.61;93718.69;4951614;28;20059;-48
2022/05/03 09:33:23;;;;;;;12.10;7.82;;;;;;;14.09;64.62;93721.22;4951841;28;20043;-50
2022/05/03 09:35:51;;;;;;;11.13;7.43;;;;;;;14.30;64.08;93720.53;4951330;28;20522;-53
2022/05/03 09:38:18;;;;;;;13.17;6.40;;;;;;;14.14;65.15;93731.69;4964679;28;20046;-49
2022/05/03 09:40:46;;;;;;;10.68;7.47;;;;;;;13.76;67.07;93727.75;4971148;28;20047;-49
2022/05/03 09:43:16;;;;;;;12.25;7.80;;;;;;;13.61;68.27;93740.41;4957851;28;20388;-48
2022/05/03 09:45:43;;;;;;;11.93;8.52;;;;;;;13.13;70.83;93737.41;4951655;28;20061;-49
2022/05/03 09:48:11;;;;;;;13.25;8.48;;;;;;;12.74;71.64;93746.75;4951493;28;20051;-50
2022/05/03 09:50:45;;;;;;;12.03;8.03;;;;;;;12.98;69.38;93752.81;4951860;28;20047;-49
2022/05/03 09:53:17;;;;;;;12.45;8.02;;;;;;;12.81;69.75;93754.03;4951143;28;20066;-49
2022/05/03 09:55:48;;;;;;;11.07;7.60;;;;;;;12.90;69.06;93754.97;4951659;28;20055;-49
2022/05/03 09:58:17;;;;;;;12.13;7.72;;;;;;;12.29;70.12;93769.50;4950702;28;20872;-50
2022/05/03 10:00:50;;;;;;;10.98;7.50;;;;;;;12.22;69.59;93764.94;4951718;28;20040;-49
2022/05/03 10:03:18;;;;;;;12.73;7.07;;;;;;;12.78;69.08;93772.97;4950958;28;20052;-48
2022/05/03 10:05:45;;;;;;;9.98;6.43;;;;;;;13.08;67.97;93762.75;4951552;28;20047;-50
2022/05/03 10:08:16;;;;;;;11.68;6.55;;;;;;;13.34;66.32;93755.38;4951250;28;20078;-52
2022/05/03 10:10:56;;;;;;;11.73;6.82;;;;;;;13.18;64.93;93767.19;4950322;28;20191;-46
2022/05/03 10:13:25;;;;;;;11.23;6.60;;;;;;;13.27;65.39;93774.81;4950779;28;21517;-49
2022/05/03 10:21:33;;;;;;;13.20;8.32;;;;;;;13.65;67.91;93774.16;4951113;28;20075;-50
2022/05/03 10:24:04;;;;;;;12.68;7.80;;;;;;;13.80;66.27;93769.00;4954424;28;20078;-48
2022/05/03 10:26:53;;;;;;;17.23;9.68;;;;;;;13.87;67.13;93770.78;4955182;28;20051;-46
2022/05/03 10:29:25;;;;;;;12.90;8.33;;;;;;;14.03;66.42;93767.91;4961444;28;21859;-48
2022/05/03 10:32:02;;;;;;;16.17;9.27;;;;;;;14.49;64.21;93768.44;4973811;28;20054;-49
2022/05/03 10:34:47;;;;;;;28.42;13.55;;;;;;;14.58;65.47;93770.53;4974048;28;20043;-51
2022/05/03 10:37:17;;;;;;;28.63;14.27;;;;;;;14.83;63.48;93761.44;4981927;28;21674;-48
2022/05/03 10:39:46;;;;;;;19.33;10.73;;;;;;;14.82;64.33;93768.16;5013149;28;20045;-48
2022/05/03 10:42:15;;;;;;;12.53;9.47;;;;;;;14.80;63.44;93767.84;5012239;28;20069;-48
2022/05/03 10:45:03;;;;;;;15.02;8.73;;;;;;;15.09;64.16;93769.59;5012826;28;20056;-48
2022/05/03 10:47:52;;;;;;;10.48;7.55;;;;;;;15.24;61.35;93770.66;4981856;28;20077;-49
2022/05/03 10:50:21;;;;;;;10.45;7.13;;;;;;;15.29;62.43;93769.28;5011916;28;21112;-50
2022/05/03 10:52:54;;;;;;;10.02;6.60;;;;;;;15.24;62.01;93772.66;5012945;28;20052;-48
2022/05/03 10:55:23;;;;;;;8.20;6.27;;;;;;;14.26;63.67;93768.78;5012084;28;20038;-51
2022/05/03 10:58:19;;;;;;;16.63;11.23;;;;;;;13.33;69.18;93773.09;5012372;28;20044;-53
2022/05/03 11:01:05;;;;;;;19.73;13.10;;;;;;;12.72;73.54;93773.94;5012737;28;20391;-47
2022/05/03 11:03:57;;;;;;;22.48;14.88;;;;;;;12.84;72.59;93764.97;5011643;28;20675;-49
2022/05/03 11:06:25;;;;;;;12.65;9.27;;;;;;;13.07;71.83;93766.72;5010745;28;21750;-50
2022/05/03 11:11:34;;;;;;;13.65;8.57;;;;;;;12.97;72.34;93762.25;5012711;28;20224;-46
2022/05/03 11:14:00;;;;;;;17.50;9.60;;;;;;;13.12;73.66;93770.91;4989268;28;20046;-48
2022/05/03 11:16:34;;;;;;;17.17;9.73;;;;;;;13.07;72.74;93769.47;4974800;28;20039;-49
2022/05/03 11:19:12;;;;;;;13.38;9.57;;;;;;;12.99;74.19;93766.13;4972910;28;20050;-50
2022/05/03 11:21:40;;;;;;;11.33;8.57;;;;;;;12.95;74.32;93759.16;4956141;28;20061;-46
2022/05/03 11:24:21;;;;;;;13.48;9.25;;;;;;;12.49;76.06;93772.91;4972570;28;20042;-48
2022/05/03 11:26:50;;;;;;;14.27;9.20;;;;;;;12.23;77.17;93760.97;4973167;28;20058;-47
2022/05/03 11:29:17;;;;;;;13.25;9.52;;;;;;;12.37;76.52;93771.66;4971927;28;20353;-49
2022/05/03 11:31:49;;;;;;;14.10;8.85;;;;;;;12.74;75.55;93761.28;4973263;28;20059;-52
2022/05/03 11:34:18;;;;;;;14.00;9.43;;;;;;;13.25;73.83;93755.19;4952766;28;21363;-47
2022/05/03 11:36:49;;;;;;;15.45;9.30;;;;;;;13.85;72.74;93751.16;4954170;28;20043;-47
2022/05/03 11:39:21;;;;;;;14.90;9.57;;;;;;;14.38;70.73;93738.38;4970945;28;20043;-50
2022/05/03 11:41:48;;;;;;;12.90;9.07;;;;;;;14.90;69.26;93738.28;4972822;28;20051;-48
2022/05/03 11:44:16;;;;;;;14.18;9.10;;;;;;;14.84;67.42;93735.31;4974240;28;20899;-51
2022/05/03 11:46:44;;;;;;;13.13;9.27;;;;;;;14.74;68.94;93730.94;4975064;28;20064;-50
2022/05/03 11:49:13;;;;;;;12.57;8.00;;;;;;;14.65;67.63;93720.59;4991766;28;20038;-49
2022/05/03 11:57:31;;;;;;;11.27;7.53;;;;;;;15.56;63.28;93708.66;4991160;28;20581;-50
2022/05/03 11:59:59;;;;;;;10.83;7.67;;;;;;;16.16;60.33;93704.78;4991520;28;20042;-49
2022/05/03 12:02:27;;;;;;;10.52;7.03;;;;;;;16.57;59.41;93705.47;4991868;28;20041;-47
2022/05/03 12:05:18;;;;;;;11.18;7.50;;;;;;;16.70;59.31;93701.78;4991089;28;20050;-50
2022/05/03 12:07:54;;;;;;;9.75;6.93;;;;;;;16.47;60.05;93697.63;4991958;28;20052;-50
2022/05/03 12:10:26;;;;;;;10.18;7.55;;;;;;;16.36;62.02;93687.75;4973823;28;20889;-51
2022/05/03 12:13:10;;;;;;;9.93;7.27;;;;;;;16.58;61.15;93695.94;4986227;28;20116;-50
2022/05/03 12:15:59;;;;;;;10.05;6.88;;;;;;;16.87;57.59;93691.97;4983185;28;20438;-50
2022/05/03 12:18:30;;;;;;;8.45;6.22;;;;;;;16.98;57.57;93685.97;4989706;28;20050;-51
2022/05/03 12:21:05;;;;;;;7.90;5.85;;;;;;;16.69;55.86;93697.50;4990967;28;20046;-51